Time;durP1;ratioP1;P1;durP2;ratioP2;P2;SDS_P1;SDS_P2;PMS_P1;PMS_P2;Temp;Humidity;BMP_temperature;BMP_pressure;BME280_temperature;BME280_humidity;BME280_pressure;Samples;Min_cycle;Max_cycle;Signal;HPM_P1;HPM_P2
2021/11/28 00:01:49;;;;;;;30.95;17.15;;;;;;;5.37;100.00;98344.22;6302973;28;19966;-71
2021/11/28 00:04:52;;;;;;;34.10;19.02;;;;;;;5.48;100.00;98343.50;6319708;28;20127;-73
2021/11/28 00:11:34;;;;;;;27.60;17.75;;;;;;;5.40;100.00;98346.63;6320496;28;20044;-72
2021/11/28 00:14:35;;;;;;;31.30;18.40;;;;;;;5.42;100.00;98345.59;6320723;28;20040;-72
2021/11/28 00:17:37;;;;;;;36.17;19.23;;;;;;;5.44;100.00;98343.72;6319474;28;20048;-72
2021/11/28 00:20:38;;;;;;;38.60;22.02;;;;;;;5.46;100.00;98343.63;6320677;28;20116;-72
2021/11/28 00:23:39;;;;;;;37.15;22.02;;;;;;;5.46;100.00;98343.63;6320611;28;20048;-73
2021/11/28 00:26:40;;;;;;;48.90;27.77;;;;;;;5.45;100.00;98349.72;6319336;28;20048;-72
2021/11/28 00:29:42;;;;;;;47.95;25.33;;;;;;;5.40;100.00;98356.97;6319409;28;20276;-72
2021/11/28 00:32:43;;;;;;;40.17;23.37;;;;;;;5.41;100.00;98346.50;6320290;28;20472;-72
2021/11/28 00:35:46;;;;;;;37.22;22.52;;;;;;;5.41;100.00;98346.50;6320489;28;20051;-72
2021/11/28 00:38:46;;;;;;;32.67;19.80;;;;;;;5.43;100.00;98346.41;6323041;28;20366;-72
2021/11/28 00:41:47;;;;;;;33.60;20.45;;;;;;;5.45;100.00;98344.53;6323798;28;20048;-71
2021/11/28 00:44:48;;;;;;;34.88;20.63;;;;;;;5.43;100.00;98343.81;6325015;28;20043;-71
2021/11/28 00:47:49;;;;;;;36.75;20.20;;;;;;;5.42;100.00;98330.06;6325015;28;20119;-71
2021/11/28 00:50:53;;;;;;;36.65;20.90;;;;;;;5.42;100.00;98327.47;6324741;28;20040;-71
2021/11/28 00:53:54;;;;;;;34.45;19.20;;;;;;;5.48;100.00;98323.66;6324934;28;20084;-72
2021/11/28 00:56:56;;;;;;;37.70;19.48;;;;;;;5.52;100.00;98330.28;6323659;28;20044;-72
2021/11/28 01:00:00;;;;;;;30.65;19.20;;;;;;;5.49;100.00;98321.88;6324669;28;20044;-72
2021/11/28 01:03:01;;;;;;;35.95;20.27;;;;;;;5.52;100.00;98321.66;6323358;28;20127;-73
2021/11/28 01:06:02;;;;;;;32.13;19.48;;;;;;;5.53;100.00;98313.81;6323362;28;20407;-73
2021/11/28 01:09:06;;;;;;;34.40;20.40;;;;;;;5.57;100.00;98304.91;6330422;28;20043;-72
2021/11/28 01:12:08;;;;;;;35.72;20.58;;;;;;;5.58;100.00;98300.56;6348428;28;20035;-73
2021/11/28 01:15:11;;;;;;;33.85;20.23;;;;;;;5.61;100.00;98285.66;6348096;28;20039;-72
2021/11/28 01:18:12;;;;;;;37.05;19.70;;;;;;;5.64;100.00;98289.78;6349583;28;20433;-72
2021/11/28 01:21:13;;;;;;;31.88;19.02;;;;;;;5.61;100.00;98298.59;6348226;28;20519;-72
2021/11/28 01:24:14;;;;;;;31.60;18.63;;;;;;;5.58;100.00;98293.63;6349451;28;20124;-72
2021/11/28 01:27:15;;;;;;;34.70;19.73;;;;;;;5.58;100.00;98300.56;6349192;28;20063;-73
2021/11/28 01:30:17;;;;;;;34.75;18.88;;;;;;;5.52;100.00;98296.66;6349283;28;20044;-72
2021/11/28 01:33:18;;;;;;;35.13;19.75;;;;;;;5.55;100.00;98290.44;6331053;28;20407;-72
2021/11/28 01:36:19;;;;;;;31.08;18.52;;;;;;;5.62;100.00;98284.72;6347976;28;20044;-71
2021/11/28 01:39:20;;;;;;;30.85;18.63;;;;;;;5.55;100.00;98288.66;6347822;28;20118;-71
2021/11/28 01:42:41;;;;;;;31.27;19.52;;;;;;;5.63;100.00;98298.50;6348931;28;20047;-71
2021/11/28 01:45:44;;;;;;;32.17;19.10;;;;;;;5.65;100.00;98284.50;6348894;28;20407;-73
2021/11/28 01:48:46;;;;;;;32.65;18.95;;;;;;;5.69;100.00;98268.78;6348507;28;20039;-73
2021/11/28 01:51:47;;;;;;;33.83;17.55;;;;;;;5.61;100.00;98271.91;6348101;28;20475;-72
2021/11/28 01:54:47;;;;;;;31.23;18.70;;;;;;;5.60;100.00;98281.44;6347569;28;20040;-71
2021/11/28 01:57:50;;;;;;;29.25;18.13;;;;;;;5.65;100.00;98287.09;6348529;28;20040;-72
2021/11/28 02:00:59;;;;;;;34.42;18.45;;;;;;;5.67;100.00;98292.16;6348536;28;20040;-73
2021/11/28 02:04:02;;;;;;;35.45;17.52;;;;;;;5.73;100.00;98285.75;6348281;28;20051;-72
2021/11/28 02:07:03;;;;;;;;;;;;;;;5.74;100.00;98287.41;6330584;28;20430;-73
2021/11/28 02:10:05;;;;;;;32.88;17.77;;;;;;;5.77;100.00;98287.19;6348155;28;19926;-72
2021/11/28 02:13:06;;;;;;;27.85;17.88;;;;;;;5.78;100.00;98283.66;6348052;28;20040;-72
2021/11/28 02:16:08;;;;;;;26.27;16.42;;;;;;;5.80;100.00;98282.59;6346833;28;20043;-72
2021/11/28 02:19:09;;;;;;;31.75;18.15;;;;;;;5.76;100.00;98268.22;6346924;28;20115;-72
2021/11/28 02:22:09;;;;;;;29.38;17.52;;;;;;;5.78;100.00;98276.72;6346701;28;20521;-71
2021/11/28 02:25:11;;;;;;;32.38;18.80;;;;;;;5.82;100.00;98260.03;6346508;28;20047;-70
2021/11/28 02:28:12;;;;;;;32.65;18.45;;;;;;;5.78;100.00;98260.38;6346531;28;20048;-70
2021/11/28 02:31:14;;;;;;;29.15;18.00;;;;;;;5.81;100.00;98247.22;6346415;28;20042;-70
2021/11/28 02:34:15;;;;;;;31.67;17.33;;;;;;;5.81;100.00;98252.41;6346417;28;20046;-71
2021/11/28 02:37:16;;;;;;;29.55;17.38;;;;;;;5.83;100.00;98255.72;6346432;28;20043;-71
2021/11/28 02:40:21;;;;;;;27.60;16.83;;;;;;;5.81;100.00;98248.03;6346355;28;20045;-72
2021/11/28 02:43:22;;;;;;;28.55;17.48;;;;;;;5.84;100.00;98241.81;6346113;28;20043;-72
2021/11/28 02:46:23;;;;;;;28.80;17.08;;;;;;;5.83;100.00;98248.75;6347450;28;20044;-73
2021/11/28 02:49:24;;;;;;;30.33;17.35;;;;;;;5.88;100.00;98245.84;6346038;28;20040;-72
2021/11/28 02:52:26;;;;;;;27.80;17.17;;;;;;;5.90;100.00;98237.97;6347042;28;20040;-72
2021/11/28 02:55:33;;;;;;;;;;;;;;;5.92;100.00;98243.88;6346526;28;20054;-72
2021/11/28 02:58:34;;;;;;;25.83;15.77;;;;;;;5.91;100.00;98237.88;6347160;28;19946;-72
2021/11/28 03:01:36;;;;;;;31.80;18.40;;;;;;;5.90;100.00;98236.22;6329081;28;20487;-71
2021/11/28 03:04:37;;;;;;;25.90;16.40;;;;;;;5.91;100.00;98235.28;6345815;28;20075;-73
2021/11/28 03:07:39;;;;;;;30.10;17.73;;;;;;;5.89;100.00;98244.94;6346965;28;20035;-73
2021/11/28 03:10:46;;;;;;;28.50;17.27;;;;;;;5.92;100.00;98243.88;6345645;28;20051;-71
2021/11/28 03:13:50;;;;;;;27.20;16.95;;;;;;;5.70;100.00;98250.53;6345455;28;20072;-72
2021/11/28 03:16:51;;;;;;;27.52;17.45;;;;;;;5.66;100.00;98251.69;6346643;28;20117;-70
2021/11/28 03:19:52;;;;;;;28.52;17.35;;;;;;;5.70;100.00;98245.38;6346735;28;20035;-71
2021/11/28 03:22:53;;;;;;;28.77;16.92;;;;;;;5.74;100.00;98249.41;6345265;28;20054;-72
2021/11/28 03:26:07;;;;;;;30.55;18.27;;;;;;;5.72;100.00;98250.44;6346783;28;20476;-72
2021/11/28 03:29:10;;;;;;;29.00;18.52;;;;;;;5.80;100.00;98248.16;6345288;28;20044;-71
2021/11/28 03:32:11;;;;;;;33.25;18.42;;;;;;;5.80;100.00;98251.56;6346364;28;20399;-71
2021/11/28 03:35:12;;;;;;;28.30;18.58;;;;;;;5.77;100.00;98249.19;6346488;28;20122;-71
2021/11/28 03:38:13;;;;;;;28.52;17.70;;;;;;;5.82;100.00;98252.28;6346790;28;20097;-72
2021/11/28 03:41:15;;;;;;;28.15;18.13;;;;;;;5.74;100.00;98246.00;6346342;28;20040;-72
2021/11/28 03:44:17;;;;;;;27.45;17.60;;;;;;;5.77;100.00;98248.38;6344993;28;20066;-72
2021/11/28 03:47:19;;;;;;;28.98;18.00;;;;;;;5.76;100.00;98251.88;6346491;28;20050;-72
2021/11/28 03:50:20;;;;;;;29.45;17.83;;;;;;;5.73;100.00;98249.53;6346219;28;20047;-71
2021/11/28 03:53:21;;;;;;;29.42;17.52;;;;;;;5.81;100.00;98250.63;6327935;28;20039;-73
2021/11/28 03:56:23;;;;;;;30.85;17.88;;;;;;;5.77;100.00;98241.44;6344851;28;20059;-72
2021/11/28 03:59:23;;;;;;;28.30;18.15;;;;;;;5.80;100.00;98253.31;6346306;28;20154;-72
2021/11/28 04:02:25;;;;;;;31.63;18.58;;;;;;;5.82;100.00;98256.63;6344790;28;20796;-72
2021/11/28 04:05:26;;;;;;;28.85;17.33;;;;;;;5.71;100.00;98261.75;6346121;28;20399;-71
2021/11/28 04:08:27;;;;;;;28.50;17.10;;;;;;;5.64;100.00;98269.09;6344894;28;20032;-72
2021/11/28 04:11:27;;;;;;;27.17;16.92;;;;;;;5.70;100.00;98266.06;6345827;28;20040;-72
2021/11/28 04:14:28;;;;;;;28.02;17.48;;;;;;;5.72;100.00;98277.13;6348908;28;20118;-71
2021/11/28 04:17:30;;;;;;;29.65;18.05;;;;;;;5.63;100.00;98277.78;6349708;28;20054;-72
2021/11/28 04:20:30;;;;;;;35.60;19.40;;;;;;;5.39;100.00;98280.28;6349815;28;20494;-72
2021/11/28 04:23:31;;;;;;;33.28;20.08;;;;;;;5.48;100.00;98276.25;6351178;28;20043;-72
2021/11/28 04:26:32;;;;;;;30.98;18.58;;;;;;;5.44;100.00;98280.81;6332548;28;20044;-71
2021/11/28 04:29:33;;;;;;;34.05;18.65;;;;;;;5.54;100.00;98286.16;6349417;28;20044;-73
2021/11/28 04:32:34;;;;;;;33.60;18.85;;;;;;;5.57;100.00;98275.63;6350587;28;20118;-72
2021/11/28 04:35:34;;;;;;;32.20;18.77;;;;;;;5.52;100.00;98285.44;6350650;28;20050;-72
2021/11/28 04:38:35;;;;;;;31.50;18.15;;;;;;;5.44;100.00;98297.16;6332331;28;20418;-73
2021/11/28 04:41:36;;;;;;;27.50;16.80;;;;;;;5.59;100.00;98300.44;6332363;28;20048;-72
2021/11/28 04:44:37;;;;;;;25.85;16.48;;;;;;;5.49;100.00;98299.44;6350297;28;20094;-72
2021/11/28 04:47:38;;;;;;;24.88;16.05;;;;;;;5.46;100.00;98289.31;6349247;28;20036;-71
2021/11/28 04:50:39;;;;;;;24.90;16.40;;;;;;;5.57;100.00;98291.97;6349473;28;20047;-71
2021/11/28 04:53:40;;;;;;;29.70;16.77;;;;;;;5.56;100.00;98292.06;6350081;28;20043;-71
2021/11/28 04:56:42;;;;;;;26.40;14.50;;;;;;;5.45;100.00;98283.28;6350059;27;20039;-71
2021/11/28 04:59:42;;;;;;;23.05;14.55;;;;;;;5.36;100.00;98288.28;6348920;28;20047;-72
2021/11/28 05:02:43;;;;;;;20.92;13.70;;;;;;;5.31;100.00;98282.56;6348811;28;20403;-71
2021/11/28 05:05:44;;;;;;;22.88;14.65;;;;;;;5.35;100.00;98282.25;6349826;28;20389;-72
2021/11/28 05:08:45;;;;;;;23.85;14.15;;;;;;;5.42;100.00;98287.84;6314900;28;20484;-72
2021/11/28 05:11:46;;;;;;;24.48;16.38;;;;;;;5.40;100.00;98284.53;6349705;28;20048;-72
2021/11/28 05:14:46;;;;;;;30.40;20.02;;;;;;;5.47;100.00;98284.94;6348442;28;20040;-71
2021/11/28 05:17:47;;;;;;;33.63;18.65;;;;;;;5.53;100.00;98294.88;6349472;28;20039;-72
2021/11/28 05:20:49;;;;;;;24.13;15.75;;;;;;;5.51;100.00;98288.97;6349664;28;20040;-72
2021/11/28 05:23:50;;;;;;;22.27;14.30;;;;;;;5.57;100.00;98278.22;6347265;28;20051;-72
2021/11/28 05:26:50;;;;;;;23.52;14.35;;;;;;;5.60;100.00;98291.78;6348871;28;20047;-71
2021/11/28 05:29:51;;;;;;;28.95;21.55;;;;;;;5.68;100.00;98286.06;6331149;28;20483;-71
2021/11/28 05:32:52;;;;;;;29.30;19.13;;;;;;;5.73;100.00;98285.75;6349227;28;20088;-73
2021/11/28 05:35:53;;;;;;;25.83;17.08;;;;;;;5.68;100.00;98286.06;6349131;28;20040;-73
2021/11/28 05:38:53;;;;;;;28.33;18.05;;;;;;;5.69;100.00;98298.06;6331021;28;20119;-73
2021/11/28 05:41:54;;;;;;;35.33;21.55;;;;;;;5.68;100.00;98309.34;6347870;28;20043;-73
2021/11/28 05:44:55;;;;;;;22.35;14.95;;;;;;;5.70;100.00;98296.31;6347556;28;20127;-73
2021/11/28 05:47:56;;;;;;;21.42;14.35;;;;;;;5.76;100.00;98294.09;6314057;28;20122;-71
2021/11/28 05:50:58;;;;;;;23.40;14.68;;;;;;;5.83;100.00;98310.88;6349298;27;20035;-71
2021/11/28 05:53:59;;;;;;;23.50;14.67;;;;;;;5.85;100.00;98288.31;6330808;28;20050;-71
2021/11/28 05:56:59;;;;;;;22.90;13.95;;;;;;;5.85;100.00;98285.72;6348705;28;20495;-72
2021/11/28 06:00:00;;;;;;;22.55;14.25;;;;;;;5.85;100.00;98279.72;6330535;28;20062;-72
2021/11/28 06:03:01;;;;;;;23.05;14.63;;;;;;;5.89;100.00;98282.91;6347360;28;20184;-71
2021/11/28 06:06:02;;;;;;;27.60;16.60;;;;;;;5.79;100.00;98291.31;6347045;28;20093;-73
2021/11/28 06:09:03;;;;;;;26.40;16.98;;;;;;;5.92;100.00;98290.47;6347102;28;20051;-73
2021/11/28 06:12:05;;;;;;;25.30;16.25;;;;;;;5.96;100.00;98287.59;6330136;28;20040;-72
2021/11/28 06:15:06;;;;;;;24.30;15.15;;;;;;;5.93;100.00;98281.75;6329966;28;20043;-73
2021/11/28 06:18:07;;;;;;;25.55;16.10;;;;;;;5.97;100.00;98278.91;6346923;28;20039;-73
2021/11/28 06:21:08;;;;;;;27.85;16.17;;;;;;;5.95;100.00;98272.16;6346852;28;20061;-73
2021/11/28 06:24:09;;;;;;;26.02;18.40;;;;;;;5.94;100.00;98276.47;6346694;28;20494;-72
2021/11/28 06:27:09;;;;;;;33.88;22.63;;;;;;;5.98;100.00;98270.19;6347757;28;20060;-73
2021/11/28 06:30:11;;;;;;;47.22;27.30;;;;;;;5.94;100.00;98267.91;6346648;28;20047;-72
2021/11/28 06:33:12;;;;;;;49.75;29.00;;;;;;;5.99;100.00;98271.84;6346452;28;20039;-73
2021/11/28 06:36:13;;;;;;;37.60;25.50;;;;;;;5.98;100.00;98272.78;6346146;28;20112;-72
2021/11/28 06:39:14;;;;;;;34.25;24.90;;;;;;;6.00;100.00;98257.13;6329559;28;20046;-73
2021/11/28 06:42:15;;;;;;;32.85;23.65;;;;;;;6.01;100.00;98251.84;6329538;28;20048;-72
2021/11/28 06:45:16;;;;;;;28.85;19.60;;;;;;;5.95;100.00;98249.69;6346266;28;20040;-72
2021/11/28 06:48:17;;;;;;;31.27;20.85;;;;;;;6.03;100.00;98242.22;6329564;28;20040;-72
2021/11/28 06:51:18;;;;;;;30.35;18.35;;;;;;;6.11;100.00;98240.84;6347207;28;20126;-72
2021/11/28 06:54:19;;;;;;;26.20;15.80;;;;;;;6.12;100.00;98227.78;6346084;28;20036;-72
2021/11/28 06:57:20;;;;;;;21.92;15.23;;;;;;;6.02;100.00;98211.25;6346352;28;20415;-72
2021/11/28 07:00:22;;;;;;;23.38;14.35;;;;;;;5.99;100.00;98196.78;6348208;28;20044;-72
2021/11/28 07:03:23;;;;;;;26.08;17.27;;;;;;;6.01;100.00;98202.66;6347104;28;20193;-72
2021/11/28 07:06:23;;;;;;;25.20;15.90;;;;;;;6.11;100.00;98228.69;6346711;28;20495;-72
2021/11/28 07:09:26;;;;;;;23.65;14.63;;;;;;;6.17;100.00;98246.38;6346390;28;20093;-74
2021/11/28 07:12:27;;;;;;;22.15;13.80;;;;;;;6.27;100.00;98254.34;6346736;28;20040;-73
2021/11/28 07:15:28;;;;;;;26.85;16.27;;;;;;;6.25;100.00;98257.03;6319624;28;20354;-72
2021/11/28 07:18:30;;;;;;;28.20;19.33;;;;;;;6.38;100.00;98261.31;6302399;28;20040;-71
2021/11/28 07:21:32;;;;;;;42.05;25.10;;;;;;;6.46;100.00;98261.59;6304507;28;20058;-73
2021/11/28 07:24:33;;;;;;;;;;;;;;;6.52;100.00;98258.56;6304784;28;20414;-71
2021/11/28 07:27:33;;;;;;;33.83;22.58;;;;;;;6.58;100.00;98252.13;6321993;28;19923;-71
2021/11/28 07:30:34;;;;;;;30.35;19.67;;;;;;;6.56;100.00;98261.75;6316085;28;20041;-71
2021/11/28 07:33:36;;;;;;;24.88;16.33;;;;;;;6.54;100.00;98263.63;6305594;28;20473;-70
2021/11/28 07:36:37;;;;;;;28.30;19.27;;;;;;;6.58;100.00;98258.13;6296909;28;20044;-71
2021/11/28 07:39:38;;;;;;;32.28;22.15;;;;;;;6.46;100.00;98253.81;6279339;28;20055;-71
2021/11/28 07:42:40;;;;;;;30.15;19.65;;;;;;;6.51;100.00;98258.69;6286471;28;20400;-72
2021/11/28 07:45:40;;;;;;;34.45;25.70;;;;;;;6.43;100.00;98247.09;6321250;28;20048;-72
2021/11/28 07:48:41;;;;;;;33.40;23.52;;;;;;;6.48;100.00;98253.72;6285463;28;20067;-72
2021/11/28 07:51:42;;;;;;;27.00;17.77;;;;;;;6.45;100.00;98244.41;6320143;28;20044;-72
2021/11/28 07:54:43;;;;;;;44.53;23.45;;;;;;;6.48;100.00;98240.75;6320656;28;20036;-72
2021/11/28 07:57:45;;;;;;;44.20;24.88;;;;;;;6.46;100.00;98240.88;6320771;28;20127;-72
2021/11/28 08:00:46;;;;;;;48.10;28.65;;;;;;;6.56;100.00;98241.03;6320552;28;20073;-73
2021/11/28 08:03:47;;;;;;;58.17;33.88;;;;;;;6.58;100.00;98242.56;6320552;28;20051;-73
2021/11/28 08:06:48;;;;;;;42.72;26.73;;;;;;;6.69;100.00;98252.13;6320446;28;20611;-73
2021/11/28 08:09:49;;;;;;;35.30;22.63;;;;;;;6.77;100.00;98243.81;6321668;28;20047;-72
2021/11/28 08:12:50;;;;;;;40.03;23.02;;;;;;;6.93;100.00;98238.31;6320200;28;20052;-72
2021/11/28 08:15:51;;;;;;;38.42;21.50;;;;;;;7.05;100.00;98245.97;6321337;28;20050;-72
2021/11/28 08:18:51;;;;;;;46.33;27.58;;;;;;;7.08;100.00;98255.28;6319721;28;20400;-73
2021/11/28 08:21:53;;;;;;;36.58;23.73;;;;;;;7.11;100.00;98260.25;6321189;28;20047;-74
2021/11/28 08:24:54;;;;;;;42.90;25.73;;;;;;;7.15;100.00;98266.88;6321674;28;20464;-73
2021/11/28 08:27:55;;;;;;;44.03;25.02;;;;;;;7.37;100.00;98262.63;6298412;28;20105;-73
2021/11/28 08:30:56;;;;;;;35.95;21.42;;;;;;;7.51;100.00;98256.41;6321342;28;20048;-73
2021/11/28 08:33:56;;;;;;;26.52;18.42;;;;;;;7.61;100.00;98252.16;6303310;28;20048;-73
2021/11/28 08:36:57;;;;;;;26.55;15.68;;;;;;;7.62;100.00;98254.63;6321450;28;20044;-73
2021/11/28 08:39:58;;;;;;;26.40;17.50;;;;;;;7.59;100.00;98241.06;6321328;28;20051;-72
2021/11/28 08:42:59;;;;;;;37.10;24.67;;;;;;;7.56;100.00;98244.72;6299192;28;20468;-73
2021/11/28 08:46:00;;;;;;;25.67;16.45;;;;;;;7.55;100.00;98243.06;6312743;28;20052;-73
2021/11/28 08:49:01;;;;;;;28.63;18.25;;;;;;;7.69;100.00;98243.78;6303172;28;20048;-73
2021/11/28 08:52:03;;;;;;;35.80;22.02;;;;;;;7.82;100.00;98240.13;6303248;28;20050;-72
2021/11/28 08:55:05;;;;;;;33.70;21.40;;;;;;;7.84;100.00;98238.22;6321333;28;20048;-73
2021/11/28 08:58:06;;;;;;;57.97;29.55;;;;;;;7.78;100.00;98238.69;6303491;28;20464;-73
2021/11/28 09:01:07;;;;;;;52.05;33.45;;;;;;;7.69;100.00;98216.03;6290991;28;20044;-72
2021/11/28 09:04:08;;;;;;;47.65;28.77;;;;;;;7.73;100.00;98225.25;6324464;28;20522;-73
2021/11/28 09:07:09;;;;;;;28.73;17.73;;;;;;;7.69;100.00;98218.63;6324744;28;20036;-73
2021/11/28 09:10:10;;;;;;;32.63;20.08;;;;;;;7.82;100.00;98216.75;6324817;28;20044;-74
2021/11/28 09:13:13;;;;;;;37.37;22.17;;;;;;;7.98;100.00;98210.31;6325180;28;20048;-74
2021/11/28 09:16:15;;;;;;;;;;;;;;;8.04;100.00;98202.03;6325633;28;20284;-73
2021/11/28 09:22:33;;;;;;;33.38;21.88;;;;;;;8.34;100.00;98195.31;6323863;28;20044;-73
2021/11/28 09:25:34;;;;;;;40.70;25.77;;;;;;;8.41;100.00;98191.31;6309101;28;20086;-74
2021/11/28 09:28:39;;;;;;;30.45;20.55;;;;;;;8.47;100.00;98201.19;6322753;28;20063;-73
2021/11/28 09:31:40;;;;;;;30.10;18.88;;;;;;;8.50;100.00;98200.13;6324048;28;20514;-73
2021/11/28 09:34:42;;;;;;;29.35;18.85;;;;;;;8.47;100.00;98194.22;6324834;28;20048;-73
2021/11/28 09:37:42;;;;;;;24.80;17.63;;;;;;;8.82;100.00;98184.47;6324913;28;20561;-73
2021/11/28 09:40:45;;;;;;;23.13;17.13;;;;;;;9.24;100.00;98166.16;6324682;28;20093;-74
2021/11/28 09:43:54;;;;;;;27.92;18.73;;;;;;;9.40;100.00;98157.88;6323664;28;20046;-73
2021/11/28 09:46:55;;;;;;;28.08;19.02;;;;;;;9.55;100.00;98161.75;6324564;28;20032;-73
2021/11/28 09:49:57;;;;;;;24.85;16.85;;;;;;;9.59;100.00;98168.34;6323510;28;20072;-74
2021/11/28 09:52:58;;;;;;;29.40;18.67;;;;;;;9.76;100.00;98148.66;6323112;28;20104;-74
2021/11/28 09:56:00;;;;;;;30.08;19.73;;;;;;;10.03;100.00;98157.59;6322949;28;20373;-73
2021/11/28 09:59:03;;;;;;;30.90;17.55;;;;;;;10.21;100.00;98145.53;6323153;28;20044;-73
2021/11/28 10:02:06;;;;;;;31.52;17.13;;;;;;;10.21;100.00;98152.50;6324143;28;20052;-73
2021/11/28 10:05:09;;;;;;;;;;;;;;;10.28;100.00;98159.63;6324522;28;20040;-74
2021/11/28 10:08:11;;;;;;;26.90;16.48;;;;;;;10.28;100.00;98158.81;6323678;28;20065;-73
2021/11/28 10:11:18;;;;;;;26.42;16.40;;;;;;;10.23;100.00;98176.66;6288887;28;20161;-73
2021/11/28 10:14:19;;;;;;;24.65;14.82;;;;;;;9.94;100.00;98167.03;6322380;28;20052;-74
2021/11/28 10:17:27;;;;;;;23.80;15.38;;;;;;;9.86;100.00;98174.69;6322504;28;20052;-73
2021/11/28 10:20:28;;;;;;;25.42;15.80;;;;;;;9.87;100.00;98176.34;6323875;28;20460;-74
2021/11/28 10:23:29;;;;;;;28.70;15.75;;;;;;;10.11;100.00;98182.94;6305890;28;20073;-73
2021/11/28 10:26:30;;;;;;;32.03;17.38;;;;;;;10.44;100.00;98179.16;6321748;28;20116;-73
2021/11/28 10:29:42;;;;;;;38.65;16.70;;;;;;;10.41;100.00;98185.44;6317683;28;20087;-75
2021/11/28 10:32:49;;;;;;;28.75;15.52;;;;;;;10.73;100.00;98173.91;6315287;28;20508;-75
2021/11/28 10:36:07;;;;;;;24.70;14.30;;;;;;;10.74;100.00;98162.50;6323686;28;20063;-74
2021/11/28 10:39:20;;;;;;;22.67;13.98;;;;;;;10.84;100.00;98152.84;6322108;28;20054;-75
2021/11/28 10:42:27;;;;;;;22.80;14.75;;;;;;;10.98;100.00;98148.97;6323854;28;20052;-75
2021/11/28 10:45:39;;;;;;;22.73;14.75;;;;;;;11.14;100.00;98140.53;6323368;28;20065;-74
2021/11/28 10:48:40;;;;;;;25.02;15.35;;;;;;;11.19;100.00;98132.28;6323228;28;20048;-74
2021/11/28 10:51:46;;;;;;;27.85;14.88;;;;;;;11.37;100.00;98121.88;6321817;28;20514;-74
2021/11/28 10:54:47;;;;;;;30.65;15.88;;;;;;;11.33;100.00;98125.75;6323126;28;20050;-72
2021/11/28 10:58:22;;;;;;;28.17;15.07;;;;;;;11.33;100.00;98121.34;6321679;28;20040;-72
2021/11/28 11:01:29;;;;;;;35.17;14.43;;;;;;;11.37;100.00;98116.66;6288823;28;20131;-75
2021/11/28 11:04:31;;;;;;;24.75;14.93;;;;;;;11.32;100.00;98111.84;6321595;28;20059;-74
2021/11/28 11:07:44;;;;;;;21.05;13.25;;;;;;;11.48;100.00;98111.22;6321243;28;20036;-75
2021/11/28 11:10:50;;;;;;;24.95;15.40;;;;;;;11.56;100.00;98110.50;6322491;28;20044;-75
2021/11/28 11:14:00;;;;;;;30.83;16.38;;;;;;;11.75;100.00;98097.28;6320273;28;20048;-74
2021/11/28 11:17:03;;;;;;;38.40;21.88;;;;;;;11.76;100.00;98091.13;6322363;28;20392;-74
2021/11/28 11:20:05;;;;;;;27.13;17.40;;;;;;;12.03;100.00;98090.25;6321217;28;20048;-74
2021/11/28 11:23:35;;;;;;;25.52;14.43;;;;;;;12.03;100.00;98089.44;6320250;28;20048;-74
2021/11/28 11:26:37;;;;;;;27.00;14.43;;;;;;;11.94;100.00;98085.09;6319598;28;20473;-74
2021/11/28 11:29:39;;;;;;;22.00;13.65;;;;;;;12.16;100.00;98083.81;6304200;28;20040;-74
2021/11/28 11:32:43;;;;;;;20.27;13.23;;;;;;;12.36;100.00;98087.06;6320506;28;20055;-74
2021/11/28 11:35:49;;;;;;;31.02;18.40;;;;;;;12.36;100.00;98076.59;6320748;28;20055;-75
2021/11/28 11:38:50;;;;;;;53.13;27.73;;;;;;;12.40;100.00;98083.16;6320520;28;20040;-72
2021/11/28 11:41:51;;;;;;;24.13;15.17;;;;;;;12.11;100.00;98076.41;6320260;28;20044;-72
2021/11/28 11:44:52;;;;;;;54.25;28.33;;;;;;;12.02;100.00;98069.47;6320310;28;20307;-73
2021/11/28 11:47:53;;;;;;;44.72;26.08;;;;;;;11.88;100.00;98065.56;6319438;28;20036;-72
2021/11/28 11:50:54;;;;;;;37.50;21.10;;;;;;;12.08;100.00;98055.78;6307844;28;20040;-72
2021/11/28 11:53:56;;;;;;;21.52;11.52;;;;;;;12.06;100.00;98055.13;6296587;28;20132;-72
2021/11/28 11:57:11;;;;;;;35.90;18.95;;;;;;;12.20;100.00;98049.34;6295797;28;20041;-72
2021/11/28 12:00:18;;;;;;;19.23;9.10;;;;;;;12.20;100.00;98041.50;6295064;28;20145;-72
2021/11/28 12:03:20;;;;;;;13.82;8.98;;;;;;;12.32;100.00;98049.13;6295050;28;20044;-75
2021/11/28 12:06:48;;;;;;;12.80;9.07;;;;;;;12.53;100.00;98053.97;6296178;28;20075;-74
2021/11/28 12:09:49;;;;;;;17.52;9.65;;;;;;;12.67;100.00;98061.25;6294545;28;20061;-74
2021/11/28 12:12:49;;;;;;;14.60;8.75;;;;;;;12.68;100.00;98055.03;6294961;28;20071;-74
2021/11/28 12:15:55;;;;;;;16.73;9.85;;;;;;;12.87;100.00;98036.50;6301288;28;20040;-74
2021/11/28 12:18:56;;;;;;;13.18;6.97;;;;;;;13.05;100.00;98046.03;6318562;28;20476;-74
2021/11/28 12:21:57;;;;;;;19.85;9.10;;;;;;;12.90;100.00;98041.41;6320761;28;20040;-74
2021/11/28 12:25:35;;;;;;;14.70;8.65;;;;;;;12.85;100.00;98043.69;6318753;28;20032;-74
2021/11/28 12:28:40;;;;;;;11.07;7.10;;;;;;;12.75;100.00;98039.56;6318855;28;20108;-74
2021/11/28 12:31:52;;;;;;;13.38;8.15;;;;;;;12.59;100.00;98030.63;6310550;28;20484;-74
2021/11/28 12:34:58;;;;;;;14.50;7.75;;;;;;;12.50;100.00;98036.81;6299370;28;20040;-74
2021/11/28 12:37:59;;;;;;;16.30;9.50;;;;;;;12.20;100.00;98035.47;6299609;28;20048;-72
2021/11/28 12:40:59;;;;;;;14.07;8.48;;;;;;;12.02;100.00;98027.66;6300560;28;20052;-72
2021/11/28 12:44:07;;;;;;;20.85;11.50;;;;;;;11.80;100.00;98024.53;6307423;28;20067;-73
2021/11/28 12:47:08;;;;;;;21.80;10.57;;;;;;;11.74;100.00;98022.50;6325049;28;20070;-73
2021/11/28 12:50:18;;;;;;;21.80;12.85;;;;;;;11.63;100.00;98034.03;6324918;28;20115;-72
2021/11/28 12:53:59;;;;;;;24.05;11.82;;;;;;;11.67;100.00;98021.47;6324747;28;20036;-72
2021/11/28 12:57:17;;;;;;;28.38;13.13;;;;;;;11.69;100.00;98004.69;6317181;28;20139;-73
2021/11/28 13:00:26;;;;;;;19.08;9.07;;;;;;;11.73;100.00;98005.19;6325450;28;20525;-72
2021/11/28 13:03:27;;;;;;;17.92;10.48;;;;;;;11.88;100.00;98005.47;6325613;28;20048;-72
2021/11/28 13:06:32;;;;;;;21.88;10.80;;;;;;;11.97;100.00;97999.38;6324528;28;20055;-73
2021/11/28 13:09:40;;;;;;;23.15;12.50;;;;;;;12.04;100.00;97984.69;6307839;28;20114;-72
2021/11/28 13:12:42;;;;;;;15.23;8.23;;;;;;;12.00;100.00;97991.22;6325428;28;20102;-72
2021/11/28 13:15:51;;;;;;;12.43;7.72;;;;;;;11.95;100.00;97985.63;6319177;28;20036;-73
2021/11/28 13:18:54;;;;;;;12.43;7.28;;;;;;;11.78;100.00;97989.06;6303560;28;20093;-72
2021/11/28 13:21:54;;;;;;;10.15;6.60;;;;;;;11.69;100.00;97985.56;6298950;28;20043;-71
2021/11/28 13:24:55;;;;;;;14.05;8.05;;;;;;;11.69;100.00;97977.72;6324136;28;20370;-71
2021/11/28 13:28:01;;;;;;;18.77;9.35;;;;;;;11.62;100.00;97974.09;6323538;28;20080;-71
2021/11/28 13:31:22;;;;;;;16.58;9.48;;;;;;;11.53;100.00;97975.81;6323886;28;20167;-72
2021/11/28 13:34:29;;;;;;;23.35;9.88;;;;;;;11.54;100.00;97976.63;6324120;28;20047;-71
2021/11/28 13:37:30;;;;;;;18.02;9.57;;;;;;;11.50;100.00;97969.09;6324821;28;20495;-71
2021/11/28 13:40:31;;;;;;;18.75;10.25;;;;;;;11.49;100.00;97966.63;6323718;28;20055;-71
2021/11/28 13:43:52;;;;;;;28.73;15.52;;;;;;;11.46;100.00;97952.06;6323444;28;20052;-72
2021/11/28 13:46:55;;;;;;;21.60;12.32;;;;;;;11.40;100.00;97952.66;6322082;28;20132;-72
2021/11/28 13:49:56;;;;;;;27.38;13.15;;;;;;;11.34;100.00;97945.44;6323237;28;20080;-72
2021/11/28 13:53:14;;;;;;;31.42;17.25;;;;;;;11.29;100.00;97929.41;6322426;28;20044;-71
2021/11/28 13:56:15;;;;;;;53.72;31.52;;;;;;;11.28;100.00;97930.38;6322882;28;20127;-72
2021/11/28 13:59:19;;;;;;;35.25;20.70;;;;;;;11.22;100.00;97926.59;6322859;28;20069;-72
2021/11/28 14:02:28;;;;;;;26.45;15.63;;;;;;;11.19;100.00;97920.84;6324258;28;20048;-72
2021/11/28 14:05:28;;;;;;;22.13;12.90;;;;;;;11.12;100.00;97920.63;6323165;28;20048;-72
2021/11/28 14:08:29;;;;;;;17.30;11.30;;;;;;;11.09;100.00;97913.06;6303559;28;20418;-72